This is the latest recevied weather packets stored in our database for station/object DC4AT. If no packets are shown the sender has not sent any weather packets the latest 10 day(s).
| Time | Temp. | Humidity | Pressure | Rain* | Wind** | Luminosity | Snow |
|---|---|---|---|---|---|---|---|
| 1787404073 | 18.33° C | 59% | 1017 hPa | 0 mm | - | 220 W/m² | - |
| 1787403473 | 18.33° C | 57% | 1016.9 hPa | 0 mm | - | 134 W/m² | - |
| 1787402873 | 19.44° C | 56% | 1017 hPa | 0 mm | - | 142 W/m² | - |
| 1787402273 | 19.44° C | 55% | 1016.7 hPa | 0 mm | - | 722 W/m² | - |
| 1787401673 | 19.44° C | 56% | 1016.6 hPa | 0 mm | - | 599 W/m² | - |
| 1787401073 | 19.44° C | 62% | 1016.7 hPa | 0.25 mm | - | 628 W/m² | - |
| 1787400473 | 18.89° C | 61% | 1016.7 hPa | 0.25 mm | - | 733 W/m² | - |
| 1787399873 | 17.78° C | 63% | 1016.7 hPa | 0.25 mm | - | 670 W/m² | - |
| 1787399273 | 17.22° C | 63% | 1016.6 hPa | 0.25 mm | - | 847 W/m² | - |
| 1787398673 | 17.22° C | 69% | 1016.7 hPa | 0.25 mm | - | 265 W/m² | - |
| 1787398073 | 17.78° C | 66% | 1016.7 hPa | 0.25 mm | - | 130 W/m² | - |
| 1787397473 | 17.78° C | 66% | 1016.3 hPa | 0 mm | - | 680 W/m² | - |
| 1787396873 | 17.78° C | 67% | 1016.4 hPa | 0 mm | - | 214 W/m² | - |
| 1787396273 | 17.22° C | 68% | 1016.4 hPa | 0 mm | - | 527 W/m² | - |
| 1787395673 | 17.22° C | 70% | 1016.3 hPa | 0 mm | - | 445 W/m² | - |
| 1787395073 | 17.22° C | 74% | 1016.3 hPa | 0 mm | - | 677 W/m² | - |
| 1787394473 | 16.67° C | 74% | 1016.3 hPa | 0 mm | - | 738 W/m² | - |
| 1787393873 | 16.67° C | 75% | 1016.3 hPa | 0 mm | - | 601 W/m² | - |
| 1787393273 | 16.11° C | 76% | 1016.2 hPa | 0 mm | - | 323 W/m² | - |
| 1787392673 | 16.11° C | 76% | 1016.2 hPa | 0 mm | - | 552 W/m² | - |
| 1787392073 | 15.56° C | 79% | 1016.2 hPa | 0 mm | - | 197 W/m² | - |
| 1787391473 | 15.56° C | 82% | 1016.1 hPa | 0 mm | - | 446 W/m² | - |
| 1787390874 | 15° C | 84% | 1016 hPa | 0.51 mm | - | 459 W/m² | - |
| 1787390274 | 15° C | 85% | 1015.9 hPa | 0.51 mm | - | 596 W/m² | - |
| 1787389674 | 14.44° C | 85% | 1015.8 hPa | 0.51 mm | - | 376 W/m² | - |
* Rain latest hour (hover to see other rain measurements)
** Current wind speed in m/s (hover to see current wind gust speed)